首页
METAR-TAF:

METAR-TAF

机场 :

安東尼奧·汪帕特國際機場

阿加尼亚, 關島, 美国

纬度: 13-29N, 经度: 144-48E, 海拔: 91米

当前天气观测

该预报发布于15分钟前的10:54 UTC
风速3节,风向
温度 27°C
湿度 84%
气压 1012 hPa
能見度: 16.1公里
天空无云

METAR: PGUM 271054Z 10003KT 10SM CLR 27/24 A2987 RMK AO2 SLP108 T02720244

时间: 21:09 (11:09 UTC)

预报

该预报发布于5小时和49分钟前的05:20 UTC
预报有效从27日的 06点(UTC)到 28日的 12点(UTC)
风速15节,风向东转东南
能見度: 10公里
散云层高于2400英尺
从 27日的 0800点(UTC)
风速8节,风向
能見度: 10公里
散云层高于2000英尺
散云层高于5000英尺
附近有阵雨
从 28日的 0100点(UTC)
风速15节,风向
能見度: 10公里
散云层高于2400英尺

TAF: PGUM 270520Z 2706/2812 11015KT P6SM SCT024 FM270800 10008KT P6SM VCSH SCT020 SCT050 FM280100 09015KT P6SM SCT024

超过4000个机场的气象观测和天气预报(METAR&TAF报告)。

可查询的气象台以黄色和红色小点在地图上表示。

将鼠标移到小点上方,可查看气象台名称。

然后点击查看天气观测和预报。

如需切换地图:点击带黑十字的绿色按钮放大地图;点击带横线的绿色按钮缩小地图;或者点击绿色箭头查看邻近地区的地图。


METAR-TAF: